createdAt,value
2022-10-01T00:01:56.287Z,26.70
2022-10-01T00:04:23.935Z,25.80
2022-10-01T00:06:51.443Z,25.80
2022-10-01T00:09:19.133Z,27.17
2022-10-01T00:11:46.719Z,24.90
2022-10-01T00:14:14.338Z,25.60
2022-10-01T00:16:43.260Z,25.73
2022-10-01T00:19:14.712Z,24.13
2022-10-01T00:21:42.613Z,23.63
2022-10-01T00:24:13.254Z,24.07
2022-10-01T00:26:41.358Z,23.40
2022-10-01T00:29:13.210Z,25.37
2022-10-01T00:31:40.913Z,24.47
2022-10-01T00:34:13.498Z,23.43
2022-10-01T00:36:41.784Z,23.87
2022-10-01T00:39:11.442Z,23.30
2022-10-01T00:41:39.152Z,22.80
2022-10-01T00:44:35.371Z,22.97
2022-10-01T00:47:10.434Z,22.50
2022-10-01T00:49:41.007Z,21.40
2022-10-01T00:52:16.873Z,22.03
2022-10-01T00:54:47.597Z,22.10
2022-10-01T00:57:19.631Z,23.13
2022-10-01T00:59:48.045Z,21.73
2022-10-01T01:02:15.634Z,20.30
2022-10-01T01:04:44.764Z,21.23
2022-10-01T01:07:13.097Z,21.77
2022-10-01T01:09:45.436Z,20.13
2022-10-01T01:12:40.705Z,19.60
2022-10-01T01:15:18.989Z,20.67
2022-10-01T01:17:55.472Z,19.80
2022-10-01T01:21:00.857Z,18.27
2022-10-01T01:24:06.754Z,18.13
2022-10-01T01:26:43.051Z,19.53
2022-10-01T01:29:18.163Z,18.30
2022-10-01T01:31:47.094Z,18.53
2022-10-01T01:34:20.637Z,18.20
2022-10-01T01:36:54.151Z,18.17
2022-10-01T01:39:24.718Z,19.00
2022-10-01T01:41:56.370Z,17.67
2022-10-01T01:44:29.533Z,17.47
2022-10-01T01:46:59.441Z,16.80
2022-10-01T01:49:27.182Z,18.00
2022-10-01T01:52:00.342Z,15.97
2022-10-01T01:54:29.442Z,17.07
2022-10-01T01:56:58.146Z,16.57
2022-10-01T01:59:27.785Z,16.97
2022-10-01T02:01:55.454Z,16.77
2022-10-01T02:04:26.335Z,16.03
2022-10-01T02:07:26.438Z,15.37
2022-10-01T02:10:05.150Z,16.53
2022-10-01T02:12:42.707Z,15.50
2022-10-01T02:15:21.549Z,15.00
2022-10-01T02:18:00.298Z,13.93
2022-10-01T02:20:32.277Z,14.63
2022-10-01T02:23:05.315Z,15.07
2022-10-01T02:25:41.298Z,15.00
2022-10-01T02:28:13.160Z,15.10
2022-10-01T02:30:44.938Z,13.50
2022-10-01T02:33:16.827Z,13.90
2022-10-01T02:35:46.466Z,14.40
2022-10-01T02:38:16.726Z,13.80
2022-10-01T02:40:46.965Z,14.40
2022-10-01T02:43:18.425Z,13.60
2022-10-01T02:45:52.695Z,14.23
2022-10-01T02:48:20.316Z,13.40
2022-10-01T02:50:52.493Z,12.77
2022-10-01T02:53:23.556Z,12.10
2022-10-01T02:55:53.145Z,13.10
2022-10-01T02:58:20.336Z,12.87
2022-10-01T03:00:49.265Z,11.53
2022-10-01T03:03:16.806Z,14.77
2022-10-01T03:05:44.339Z,13.57
2022-10-01T03:08:11.891Z,13.70
2022-10-01T03:10:42.442Z,12.20
2022-10-01T03:13:13.544Z,12.93
2022-10-01T03:15:41.121Z,12.73
2022-10-01T03:18:10.049Z,13.53
2022-10-01T03:20:37.579Z,12.23
2022-10-01T03:23:05.110Z,13.03
2022-10-01T03:25:32.666Z,12.90
2022-10-01T03:28:00.832Z,13.80
2022-10-01T03:30:28.468Z,12.70
2022-10-01T03:32:56.338Z,12.63
2022-10-01T03:35:25.554Z,12.27
2022-10-01T03:37:53.070Z,13.13
2022-10-01T03:40:20.620Z,13.23
2022-10-01T03:42:48.494Z,12.47
2022-10-01T03:45:16.233Z,13.50
2022-10-01T03:47:43.756Z,12.90
2022-10-01T03:50:11.423Z,14.00
2022-10-01T03:52:42.131Z,14.57
2022-10-01T03:55:10.222Z,13.40
2022-10-01T03:57:37.737Z,13.87
2022-10-01T04:00:08.773Z,15.37
2022-10-01T04:02:36.382Z,15.83
2022-10-01T04:05:04.245Z,16.03
2022-10-01T04:07:31.858Z,16.80
2022-10-01T04:10:01.065Z,16.30
2022-10-01T04:12:28.974Z,16.50
2022-10-01T04:14:56.481Z,16.80
2022-10-01T04:17:24.043Z,17.23
2022-10-01T04:19:51.596Z,18.70
2022-10-01T04:22:19.138Z,18.70
2022-10-01T04:24:46.649Z,18.53
2022-10-01T04:27:15.531Z,19.47
2022-10-01T04:29:43.046Z,19.37
2022-10-01T04:32:10.575Z,21.70
2022-10-01T04:34:53.311Z,21.97
2022-10-01T04:37:21.302Z,21.90
2022-10-01T04:39:48.909Z,22.53
2022-10-01T04:42:17.781Z,21.87
2022-10-01T04:44:45.318Z,23.90
2022-10-01T04:47:12.866Z,24.67
2022-10-01T04:49:40.397Z,25.27
2022-10-01T04:52:07.918Z,23.63
2022-10-01T04:54:35.466Z,26.13
2022-10-01T04:57:02.965Z,25.90
2022-10-01T04:59:32.022Z,25.30
2022-10-01T05:01:59.707Z,26.00
2022-10-01T05:04:27.403Z,25.50
2022-10-01T05:06:54.997Z,26.20
2022-10-01T05:09:22.557Z,27.83
2022-10-01T05:11:51.953Z,27.70
2022-10-01T05:14:20.689Z,28.53
2022-10-01T05:16:49.547Z,27.90
2022-10-01T05:19:17.430Z,28.30
2022-10-01T05:21:45.806Z,29.50
2022-10-01T05:24:14.178Z,28.10
2022-10-01T05:26:41.694Z,29.70
2022-10-01T05:29:09.321Z,28.37
2022-10-01T05:31:37.636Z,28.03
2022-10-01T05:34:06.954Z,29.83
2022-10-01T05:36:34.526Z,29.40
2022-10-01T05:39:02.295Z,27.07
2022-10-01T05:41:29.809Z,28.47
2022-10-01T05:43:57.362Z,27.67
2022-10-01T05:46:24.901Z,29.17
2022-10-01T05:48:52.670Z,29.50
2022-10-01T05:51:21.639Z,31.30
2022-10-01T05:53:50.514Z,28.40
2022-10-01T05:56:18.236Z,29.40
2022-10-01T05:58:46.705Z,29.47
2022-10-01T06:01:14.848Z,28.27
2022-10-01T06:03:42.890Z,29.30
2022-10-01T06:06:10.452Z,29.70
2022-10-01T06:08:39.369Z,28.80
2022-10-01T06:11:07.222Z,28.83
2022-10-01T06:13:36.863Z,30.03
2022-10-01T06:16:04.481Z,30.33
2022-10-01T06:18:32.046Z,28.90
2022-10-01T06:21:00.590Z,30.70
2022-10-01T06:23:28.760Z,31.83
2022-10-01T06:26:00.250Z,29.93
2022-10-01T06:28:29.050Z,31.10
2022-10-01T06:30:56.629Z,29.30
2022-10-01T06:33:24.201Z,28.97
2022-10-01T06:35:52.889Z,28.67
2022-10-01T06:38:22.889Z,30.03
2022-10-01T06:40:54.453Z,30.63
2022-10-01T06:43:24.589Z,30.50
2022-10-01T06:45:52.647Z,30.90
2022-10-01T06:48:21.385Z,29.73
2022-10-01T06:50:50.858Z,29.70
2022-10-01T06:53:19.313Z,29.10
2022-10-01T06:55:47.386Z,27.53
2022-10-01T06:58:17.106Z,28.27
2022-10-01T07:00:46.871Z,29.50
2022-10-01T07:03:16.690Z,27.40
2022-10-01T07:05:44.299Z,27.67
2022-10-01T07:08:11.878Z,28.03
2022-10-01T07:10:39.888Z,29.00
2022-10-01T07:13:09.207Z,28.27
2022-10-01T07:15:37.182Z,27.50
2022-10-01T07:18:06.679Z,27.00
2022-10-01T07:20:39.352Z,28.63
2022-10-01T07:23:08.690Z,27.93
2022-10-01T07:25:36.314Z,29.13
2022-10-01T07:28:05.630Z,28.07
2022-10-01T07:30:33.221Z,27.33
2022-10-01T07:33:00.775Z,27.03
2022-10-01T07:35:29.672Z,27.90
2022-10-01T07:37:57.250Z,27.80
2022-10-01T07:40:24.908Z,28.33
2022-10-01T07:42:56.473Z,27.73
2022-10-01T07:45:24.330Z,28.07
2022-10-01T07:47:55.267Z,28.07
2022-10-01T07:50:23.394Z,27.53
2022-10-01T07:52:56.322Z,27.40
2022-10-01T07:55:26.903Z,26.70
2022-10-01T07:57:55.569Z,26.23
2022-10-01T08:00:25.284Z,27.93
2022-10-01T08:02:55.982Z,27.67
2022-10-01T08:05:25.981Z,27.23
2022-10-01T08:07:59.363Z,26.60
2022-10-01T08:10:26.982Z,27.30
2022-10-01T08:13:01.315Z,27.27
2022-10-01T08:15:29.240Z,26.73
2022-10-01T08:17:56.777Z,27.27
2022-10-01T08:20:24.308Z,26.63
2022-10-01T08:22:51.874Z,26.93
2022-10-01T08:25:20.757Z,27.87
2022-10-01T08:27:49.431Z,25.97
2022-10-01T08:30:17.046Z,26.87
2022-10-01T08:32:44.598Z,29.00
2022-10-01T08:35:12.423Z,27.60
2022-10-01T08:37:39.967Z,28.73
2022-10-01T08:40:09.125Z,26.13
2022-10-01T08:42:51.529Z,27.40
2022-10-01T08:45:25.873Z,25.70
2022-10-01T08:48:00.110Z,25.63
2022-10-01T08:50:37.026Z,27.23
2022-10-01T08:53:07.810Z,26.93
2022-10-01T08:55:37.596Z,27.07
2022-10-01T08:58:11.319Z,26.73
2022-10-01T09:00:42.992Z,26.90
2022-10-01T09:03:14.535Z,28.53
2022-10-01T09:05:53.994Z,28.20
2022-10-01T09:08:44.427Z,27.13
2022-10-01T09:11:21.972Z,27.70
2022-10-01T09:14:02.629Z,27.77
2022-10-01T09:16:38.529Z,26.70
2022-10-01T09:19:22.709Z,26.20
2022-10-01T09:21:57.093Z,26.20
2022-10-01T09:24:40.527Z,27.00
2022-10-01T09:27:14.546Z,26.23
2022-10-01T09:29:49.100Z,26.57
2022-10-01T09:32:21.497Z,25.50
2022-10-01T09:34:49.455Z,24.67
2022-10-01T09:37:27.211Z,24.57
2022-10-01T09:40:05.512Z,25.73
2022-10-01T09:42:33.119Z,27.13
2022-10-01T09:45:02.037Z,25.97
2022-10-01T09:47:29.602Z,25.40
2022-10-01T09:50:01.181Z,26.30
2022-10-01T09:52:34.439Z,25.70
2022-10-01T09:55:05.997Z,26.67
2022-10-01T09:57:37.146Z,25.87
2022-10-01T10:00:11.129Z,26.97
2022-10-01T10:02:48.175Z,27.30
2022-10-01T10:05:18.532Z,26.90
2022-10-01T10:07:47.790Z,27.10
2022-10-01T10:10:24.791Z,26.97
2022-10-01T10:12:57.794Z,28.43
2022-10-01T10:15:27.273Z,27.37
2022-10-01T10:17:55.726Z,27.47
2022-10-01T10:20:30.818Z,27.67
2022-10-01T10:23:09.030Z,27.10
2022-10-01T10:25:36.573Z,28.40
2022-10-01T10:28:05.058Z,28.40
2022-10-01T10:30:34.471Z,29.27
2022-10-01T10:33:08.034Z,29.97
2022-10-01T10:35:36.157Z,28.73
2022-10-01T10:38:03.955Z,29.53
2022-10-01T10:40:35.496Z,29.50
2022-10-01T10:43:03.182Z,29.77
2022-10-01T10:45:37.313Z,29.67
2022-10-01T10:48:07.831Z,29.63
2022-10-01T10:50:39.114Z,29.60
2022-10-01T10:53:21.997Z,30.20
2022-10-01T10:55:58.235Z,31.13
2022-10-01T10:58:27.675Z,30.77
2022-10-01T11:00:59.967Z,28.43
2022-10-01T11:03:30.442Z,29.10
2022-10-01T11:06:03.501Z,27.03
2022-10-01T11:08:31.564Z,29.27
2022-10-01T11:11:12.961Z,29.70
2022-10-01T11:13:51.686Z,29.40
2022-10-01T11:16:44.153Z,28.73
2022-10-01T11:19:25.877Z,26.00
2022-10-01T11:22:07.779Z,28.37
2022-10-01T11:25:01.568Z,27.83
2022-10-01T11:27:39.622Z,29.00
2022-10-01T11:30:11.766Z,27.13
2022-10-01T11:32:46.375Z,25.50
2022-10-01T11:35:29.759Z,27.77
2022-10-01T11:38:09.081Z,23.87
2022-10-01T11:40:42.414Z,29.03
2022-10-01T11:43:17.644Z,24.30
2022-10-01T11:45:49.537Z,23.43
2022-10-01T11:48:24.046Z,23.10
2022-10-01T11:50:54.258Z,23.07
2022-10-01T11:53:30.751Z,21.63
2022-10-01T11:56:20.781Z,20.00
2022-10-01T11:58:57.154Z,20.33
2022-10-01T12:01:36.910Z,20.43
2022-10-01T12:04:18.300Z,17.67
2022-10-01T12:06:55.333Z,21.63
2022-10-01T12:09:32.450Z,14.17
2022-10-01T12:12:05.887Z,22.77
2022-10-01T12:14:41.740Z,14.63
2022-10-01T12:17:16.150Z,15.50
2022-10-01T12:19:47.906Z,12.53
2022-10-01T12:22:24.354Z,13.47
2022-10-01T12:24:53.505Z,19.30
2022-10-01T12:27:34.702Z,16.43
2022-10-01T12:30:05.888Z,11.57
2022-10-01T12:32:41.644Z,10.23
2022-10-01T12:35:26.774Z,10.77
2022-10-01T12:38:09.958Z,12.63
2022-10-01T12:40:45.458Z,16.17
2022-10-01T12:43:35.677Z,15.73
2022-10-01T12:46:12.632Z,19.83
2022-10-01T12:48:48.935Z,17.10
2022-10-01T12:51:42.773Z,19.60
2022-10-01T12:54:27.123Z,16.27
2022-10-01T12:57:01.379Z,20.50
2022-10-01T12:59:41.540Z,18.57
2022-10-01T13:02:30.347Z,12.20
2022-10-01T13:05:20.014Z,19.63
2022-10-01T13:08:05.329Z,15.67
2022-10-01T13:10:48.678Z,11.77
2022-10-01T13:13:20.905Z,20.63
2022-10-01T13:15:53.411Z,12.73
2022-10-01T13:18:31.407Z,13.87
2022-10-01T13:21:12.640Z,17.77
2022-10-01T13:23:48.723Z,20.43
2022-10-01T13:26:20.986Z,15.33
2022-10-01T13:29:03.601Z,14.93
2022-10-01T13:31:39.096Z,22.17
2022-10-01T13:34:36.598Z,18.07
2022-10-01T13:37:12.350Z,17.37
2022-10-01T13:39:42.194Z,19.27
2022-10-01T13:42:20.342Z,17.10
2022-10-01T13:44:53.906Z,19.03
2022-10-01T13:47:23.653Z,19.60
2022-10-01T13:49:56.971Z,20.80
2022-10-01T13:52:25.173Z,19.70
2022-10-01T13:54:56.339Z,18.43
2022-10-01T13:57:30.060Z,16.67
2022-10-01T14:00:03.357Z,16.57
2022-10-01T14:02:35.890Z,16.83
2022-10-01T14:05:28.733Z,19.20
2022-10-01T14:08:11.777Z,14.70
2022-10-01T14:10:58.587Z,13.20
2022-10-01T14:13:46.789Z,17.20
2022-10-01T14:16:16.102Z,16.97
2022-10-01T14:18:47.962Z,13.33
2022-10-01T14:21:30.849Z,12.43
2022-10-01T14:24:03.174Z,13.47
2022-10-01T14:26:38.646Z,13.10
2022-10-01T14:29:18.742Z,14.23
2022-10-01T14:31:58.162Z,17.50
2022-10-01T14:34:43.237Z,11.80
2022-10-01T14:37:17.303Z,12.50
2022-10-01T14:39:45.375Z,18.10
2022-10-01T14:42:18.209Z,15.13
2022-10-01T14:44:47.022Z,11.10
2022-10-01T14:47:20.327Z,11.03
2022-10-01T14:49:48.688Z,11.37
2022-10-01T14:52:23.070Z,10.07
2022-10-01T14:54:58.006Z,12.17
2022-10-01T14:57:31.261Z,9.93
2022-10-01T15:00:01.296Z,11.77
2022-10-01T15:02:29.529Z,15.70
2022-10-01T15:04:58.358Z,10.60
2022-10-01T15:07:29.110Z,11.80
2022-10-01T15:10:07.071Z,12.50
2022-10-01T15:12:40.705Z,10.93
2022-10-01T15:15:20.447Z,11.07
2022-10-01T15:17:48.730Z,11.30
2022-10-01T15:20:17.687Z,11.13
2022-10-01T15:22:48.838Z,11.10
2022-10-01T15:25:23.342Z,11.57
2022-10-01T15:27:54.129Z,11.87
2022-10-01T15:30:21.986Z,13.33
2022-10-01T15:32:51.305Z,10.90
2022-10-01T15:35:21.536Z,10.93
2022-10-01T15:37:51.399Z,10.73
2022-10-01T15:40:25.581Z,10.47
2022-10-01T15:43:21.243Z,11.60
2022-10-01T15:46:16.286Z,11.90
2022-10-01T15:48:44.479Z,11.70
2022-10-01T15:51:29.806Z,12.47
2022-10-01T15:54:06.979Z,10.93
2022-10-01T15:56:35.183Z,9.93
2022-10-01T15:59:13.891Z,10.70
2022-10-01T16:01:41.884Z,10.10
2022-10-01T16:04:12.789Z,9.90
2022-10-01T16:06:43.015Z,11.07
2022-10-01T16:09:14.519Z,12.80
2022-10-01T16:11:55.009Z,11.27
2022-10-01T16:14:30.561Z,11.10
2022-10-01T16:17:32.133Z,11.70
2022-10-01T16:20:01.694Z,12.23
2022-10-01T16:22:31.661Z,13.17
2022-10-01T16:25:01.421Z,13.67
2022-10-01T16:27:31.251Z,12.73
2022-10-01T16:30:05.776Z,13.97
2022-10-01T16:32:34.043Z,14.90
2022-10-01T16:35:17.623Z,15.40
2022-10-01T16:37:47.441Z,16.03
2022-10-01T16:40:16.337Z,17.47
2022-10-01T16:42:45.073Z,17.40
2022-10-01T16:45:17.870Z,18.50
2022-10-01T16:47:46.008Z,18.60
2022-10-01T16:50:17.174Z,20.20
2022-10-01T16:52:44.887Z,19.93
2022-10-01T16:55:18.168Z,20.50
2022-10-01T16:57:45.760Z,19.60
2022-10-01T17:00:16.884Z,20.90
2022-10-01T17:02:44.682Z,21.17
2022-10-01T17:05:18.990Z,22.43
2022-10-01T17:07:47.041Z,21.43
2022-10-01T17:10:15.350Z,21.70
2022-10-01T17:12:43.694Z,21.60
2022-10-01T17:15:15.545Z,21.63
2022-10-01T17:17:44.781Z,23.67
2022-10-01T17:20:12.999Z,22.80
2022-10-01T17:22:42.741Z,22.93
2022-10-01T17:25:15.595Z,23.53
2022-10-01T17:27:43.512Z,24.50
2022-10-01T17:30:11.960Z,25.40
2022-10-01T17:32:42.774Z,25.37
2022-10-01T17:35:13.101Z,24.40
2022-10-01T17:37:41.333Z,27.50
2022-10-01T17:40:10.657Z,25.60
2022-10-01T17:42:38.352Z,27.20
2022-10-01T17:45:09.398Z,26.67
2022-10-01T17:47:37.250Z,26.27
2022-10-01T17:50:05.584Z,28.03
2022-10-01T17:52:34.510Z,27.53
2022-10-01T17:55:02.045Z,27.23
2022-10-01T17:57:29.571Z,27.97
2022-10-01T17:59:57.100Z,27.77
2022-10-01T18:02:40.895Z,29.33
2022-10-01T18:05:12.260Z,28.60
2022-10-01T18:07:41.589Z,27.40
2022-10-01T18:10:12.026Z,32.53
2022-10-01T18:12:39.657Z,28.40
2022-10-01T18:15:08.207Z,30.10
2022-10-01T18:17:42.924Z,28.40
2022-10-01T18:20:11.165Z,29.23
2022-10-01T18:22:38.823Z,30.63
2022-10-01T18:25:08.606Z,30.10
2022-10-01T18:27:36.149Z,29.10
2022-10-01T18:30:03.809Z,29.10
2022-10-01T18:32:37.494Z,29.37
2022-10-01T18:35:12.977Z,31.33
2022-10-01T18:37:46.483Z,31.70
2022-10-01T18:40:19.938Z,29.37
2022-10-01T18:42:52.263Z,30.27
2022-10-01T18:45:34.307Z,31.10
2022-10-01T18:48:19.174Z,30.30
2022-10-01T18:50:53.494Z,30.00
2022-10-01T18:53:38.225Z,29.53
2022-10-01T18:56:31.010Z,30.63
2022-10-01T18:59:24.037Z,29.77
2022-10-01T19:02:07.659Z,30.73
2022-10-01T19:05:00.353Z,29.80
2022-10-01T19:07:42.398Z,31.93
2022-10-01T19:10:17.120Z,32.20
2022-10-01T19:12:59.214Z,31.70
2022-10-01T19:15:37.706Z,31.23
2022-10-01T19:18:21.890Z,31.07
2022-10-01T19:21:01.957Z,30.97
2022-10-01T19:23:51.434Z,31.00
2022-10-01T19:26:26.526Z,30.87
2022-10-01T19:29:11.541Z,31.00
2022-10-01T19:31:46.088Z,31.17
2022-10-01T19:34:19.554Z,31.13
2022-10-01T19:36:54.141Z,29.97
2022-10-01T19:39:25.095Z,31.27
2022-10-01T19:41:56.453Z,30.47
2022-10-01T19:44:32.650Z,31.97
2022-10-01T19:47:15.504Z,29.50
2022-10-01T19:49:45.810Z,31.27
2022-10-01T19:52:18.083Z,29.87
2022-10-01T19:54:49.715Z,29.83
2022-10-01T19:57:23.331Z,32.00
2022-10-01T19:59:55.162Z,30.07
2022-10-01T20:02:33.621Z,27.63
2022-10-01T20:05:05.712Z,28.90
2022-10-01T20:07:42.223Z,29.73
2022-10-01T20:10:19.655Z,31.00
2022-10-01T20:12:57.027Z,30.17
2022-10-01T20:15:39.161Z,28.80
2022-10-01T20:18:14.847Z,31.03
2022-10-01T20:20:48.823Z,30.33
2022-10-01T20:23:33.282Z,31.63
2022-10-01T20:26:10.832Z,30.00
2022-10-01T20:28:52.709Z,30.43
2022-10-01T20:31:28.241Z,31.13
2022-10-01T20:34:03.839Z,30.37
2022-10-01T20:36:38.479Z,30.00
2022-10-01T20:39:13.141Z,30.07
2022-10-01T20:41:45.046Z,28.47
2022-10-01T20:44:18.230Z,33.17
2022-10-01T20:46:49.456Z,28.13
2022-10-01T20:49:27.183Z,30.50
2022-10-01T20:51:58.368Z,27.53
2022-10-01T20:54:33.178Z,28.33
2022-10-01T20:57:06.703Z,28.33
2022-10-01T20:59:40.711Z,28.43
2022-10-01T21:02:25.388Z,28.67
2022-10-01T21:05:01.328Z,30.73
2022-10-01T21:07:36.423Z,29.33
2022-10-01T21:10:11.537Z,30.20
2022-10-01T21:12:43.258Z,31.27
2022-10-01T21:15:14.518Z,28.83
2022-10-01T21:17:53.449Z,28.80
2022-10-01T21:20:38.882Z,28.43
2022-10-01T21:23:18.141Z,28.37
2022-10-01T21:25:59.077Z,27.80
2022-10-01T21:28:52.674Z,28.73
2022-10-01T21:31:33.179Z,28.97
2022-10-01T21:34:04.336Z,28.80
2022-10-01T21:36:38.292Z,28.63
2022-10-01T21:39:12.079Z,29.30
2022-10-01T21:41:53.526Z,28.50
2022-10-01T21:44:42.701Z,28.57
2022-10-01T21:47:16.272Z,27.87
2022-10-01T21:49:58.930Z,26.50
2022-10-01T21:52:38.659Z,28.77
2022-10-01T21:55:32.261Z,26.67
2022-10-01T21:58:13.653Z,25.90
2022-10-01T22:00:41.698Z,26.43
2022-10-01T22:03:20.054Z,26.73
2022-10-01T22:05:57.466Z,27.00
2022-10-01T22:08:40.321Z,26.80
2022-10-01T22:11:15.785Z,26.53
2022-10-01T22:13:51.356Z,28.00
2022-10-01T22:16:21.959Z,30.33
2022-10-01T22:18:52.866Z,31.07
2022-10-01T22:21:26.659Z,27.83
2022-10-01T22:24:02.450Z,26.63
2022-10-01T22:26:32.898Z,25.53
2022-10-01T22:29:04.720Z,24.87
2022-10-01T22:31:37.463Z,26.20
2022-10-01T22:34:10.148Z,26.23
2022-10-01T22:36:46.255Z,28.60
2022-10-01T22:39:20.161Z,25.30
2022-10-01T22:41:51.901Z,27.93
2022-10-01T22:44:21.777Z,26.90
2022-10-01T22:47:21.761Z,27.20
2022-10-01T22:50:18.542Z,27.67
2022-10-01T22:53:00.541Z,29.10
2022-10-01T22:55:37.844Z,28.50
2022-10-01T22:58:31.055Z,27.53
2022-10-01T23:01:08.378Z,27.27
2022-10-01T23:03:50.423Z,25.90
2022-10-01T23:06:29.327Z,27.33
2022-10-01T23:09:05.666Z,27.37
2022-10-01T23:11:43.765Z,28.60
2022-10-01T23:14:22.981Z,28.50
2022-10-01T23:16:56.798Z,27.20
2022-10-01T23:19:39.946Z,33.43
2022-10-01T23:22:14.957Z,27.20
2022-10-01T23:24:56.302Z,26.87
2022-10-01T23:27:37.047Z,28.03
2022-10-01T23:30:14.269Z,27.17
2022-10-01T23:33:20.555Z,26.40
2022-10-01T23:35:53.403Z,28.23
2022-10-01T23:38:45.577Z,28.23
2022-10-01T23:41:22.402Z,25.93
2022-10-01T23:43:50.929Z,25.93
2022-10-01T23:46:22.582Z,27.87
2022-10-01T23:48:56.678Z,26.17
2022-10-01T23:51:27.650Z,25.93
2022-10-01T23:54:01.345Z,25.30
2022-10-01T23:56:52.990Z,27.83
2022-10-01T23:59:28.384Z,25.50
